sensor_id;sensor_type;location;lat;lon;timestamp;temperature;humidity
336;DHT22;156;48.738;9.228;2023-03-01T00:01:39;-0.60;1.00
336;DHT22;156;48.738;9.228;2023-03-01T00:04:06;-0.60;1.00
336;DHT22;156;48.738;9.228;2023-03-01T00:06:33;-0.60;1.00
336;DHT22;156;48.738;9.228;2023-03-01T00:09:00;-0.70;1.00
336;DHT22;156;48.738;9.228;2023-03-01T00:11:29;-0.70;1.00
336;DHT22;156;48.738;9.228;2023-03-01T00:13:59;-0.60;1.00
336;DHT22;156;48.738;9.228;2023-03-01T00:16:28;-0.60;1.00
336;DHT22;156;48.738;9.228;2023-03-01T00:18:56;-0.70;1.00
336;DHT22;156;48.738;9.228;2023-03-01T00:21:23;-0.70;1.00
336;DHT22;156;48.738;9.228;2023-03-01T00:23:51;-0.70;1.00
336;DHT22;156;48.738;9.228;2023-03-01T00:26:20;-0.80;1.00
336;DHT22;156;48.738;9.228;2023-03-01T00:28:48;-0.80;1.00
336;DHT22;156;48.738;9.228;2023-03-01T00:31:17;-0.80;1.00
336;DHT22;156;48.738;9.228;2023-03-01T00:33:45;-0.80;1.00
336;DHT22;156;48.738;9.228;2023-03-01T00:36:14;-0.80;1.00
336;DHT22;156;48.738;9.228;2023-03-01T00:38:43;-0.90;1.00
336;DHT22;156;48.738;9.228;2023-03-01T00:41:12;-0.90;1.00
336;DHT22;156;48.738;9.228;2023-03-01T00:43:39;-0.90;1.00
336;DHT22;156;48.738;9.228;2023-03-01T00:46:10;-0.90;1.00
336;DHT22;156;48.738;9.228;2023-03-01T00:48:37;-0.90;1.00
336;DHT22;156;48.738;9.228;2023-03-01T00:51:05;-0.90;1.00
336;DHT22;156;48.738;9.228;2023-03-01T00:53:33;-1.00;1.00
336;DHT22;156;48.738;9.228;2023-03-01T00:56:00;-1.00;1.00
336;DHT22;156;48.738;9.228;2023-03-01T00:58:27;-1.00;1.00
336;DHT22;156;48.738;9.228;2023-03-01T01:00:54;-1.00;1.00
336;DHT22;156;48.738;9.228;2023-03-01T01:03:23;-1.00;1.00
336;DHT22;156;48.738;9.228;2023-03-01T01:05:50;-1.00;1.00
336;DHT22;156;48.738;9.228;2023-03-01T01:08:17;-1.00;1.00
336;DHT22;156;48.738;9.228;2023-03-01T01:10:44;-1.00;1.00
336;DHT22;156;48.738;9.228;2023-03-01T01:13:11;-1.00;1.00
336;DHT22;156;48.738;9.228;2023-03-01T01:15:39;-1.00;1.00
336;DHT22;156;48.738;9.228;2023-03-01T01:18:06;-1.10;1.00
336;DHT22;156;48.738;9.228;2023-03-01T01:20:35;-1.10;1.00
336;DHT22;156;48.738;9.228;2023-03-01T01:23:02;-1.10;1.00
336;DHT22;156;48.738;9.228;2023-03-01T01:25:34;-1.20;1.00
336;DHT22;156;48.738;9.228;2023-03-01T01:28:01;-1.20;1.00
336;DHT22;156;48.738;9.228;2023-03-01T01:30:28;-1.20;1.00
336;DHT22;156;48.738;9.228;2023-03-01T01:32:54;-1.30;1.00
336;DHT22;156;48.738;9.228;2023-03-01T01:35:21;-1.30;1.00
336;DHT22;156;48.738;9.228;2023-03-01T01:37:49;-1.30;1.00
336;DHT22;156;48.738;9.228;2023-03-01T01:40:16;-1.20;1.00
336;DHT22;156;48.738;9.228;2023-03-01T01:42:43;-1.20;1.00
336;DHT22;156;48.738;9.228;2023-03-01T01:45:31;-1.20;1.00
336;DHT22;156;48.738;9.228;2023-03-01T01:48:02;-1.20;1.00
336;DHT22;156;48.738;9.228;2023-03-01T01:50:30;-1.20;1.00
336;DHT22;156;48.738;9.228;2023-03-01T01:53:06;-1.10;1.00
336;DHT22;156;48.738;9.228;2023-03-01T01:55:36;-1.10;1.00
336;DHT22;156;48.738;9.228;2023-03-01T01:58:05;-1.00;1.00
336;DHT22;156;48.738;9.228;2023-03-01T02:00:34;-0.90;1.00
336;DHT22;156;48.738;9.228;2023-03-01T02:03:08;-0.90;1.00
336;DHT22;156;48.738;9.228;2023-03-01T02:05:39;-0.80;1.00
336;DHT22;156;48.738;9.228;2023-03-01T02:08:11;-0.80;1.00
336;DHT22;156;48.738;9.228;2023-03-01T02:10:39;-0.80;1.00
336;DHT22;156;48.738;9.228;2023-03-01T02:13:07;-0.80;1.00
336;DHT22;156;48.738;9.228;2023-03-01T02:15:34;-0.80;1.00
336;DHT22;156;48.738;9.228;2023-03-01T02:18:02;-0.80;1.00
336;DHT22;156;48.738;9.228;2023-03-01T02:20:34;-0.80;1.00
336;DHT22;156;48.738;9.228;2023-03-01T02:23:02;-0.80;1.00
336;DHT22;156;48.738;9.228;2023-03-01T02:25:38;-0.80;1.00
336;DHT22;156;48.738;9.228;2023-03-01T02:28:20;-0.80;1.00
336;DHT22;156;48.738;9.228;2023-03-01T02:30:49;-0.80;1.00
336;DHT22;156;48.738;9.228;2023-03-01T02:33:36;-0.70;1.00
336;DHT22;156;48.738;9.228;2023-03-01T02:36:07;-0.70;1.00
336;DHT22;156;48.738;9.228;2023-03-01T02:38:35;-0.70;1.00
336;DHT22;156;48.738;9.228;2023-03-01T02:41:02;-0.70;1.00
336;DHT22;156;48.738;9.228;2023-03-01T02:43:33;-0.70;1.00
336;DHT22;156;48.738;9.228;2023-03-01T02:46:04;-0.70;1.00
336;DHT22;156;48.738;9.228;2023-03-01T02:48:40;-0.70;1.00
336;DHT22;156;48.738;9.228;2023-03-01T02:51:11;-0.70;1.00
336;DHT22;156;48.738;9.228;2023-03-01T02:53:48;-0.70;1.00
336;DHT22;156;48.738;9.228;2023-03-01T02:56:17;-0.70;1.00
336;DHT22;156;48.738;9.228;2023-03-01T02:58:46;-0.70;1.00
336;DHT22;156;48.738;9.228;2023-03-01T03:01:17;-0.70;1.00
336;DHT22;156;48.738;9.228;2023-03-01T03:03:44;-0.70;1.00
336;DHT22;156;48.738;9.228;2023-03-01T03:06:12;-0.70;1.00
336;DHT22;156;48.738;9.228;2023-03-01T03:08:39;-0.70;1.00
336;DHT22;156;48.738;9.228;2023-03-01T03:11:06;-0.70;1.00
336;DHT22;156;48.738;9.228;2023-03-01T03:13:33;-0.70;1.00
336;DHT22;156;48.738;9.228;2023-03-01T03:16:02;-0.70;1.00
336;DHT22;156;48.738;9.228;2023-03-01T03:18:29;-0.70;1.00
336;DHT22;156;48.738;9.228;2023-03-01T03:20:56;-0.70;1.00
336;DHT22;156;48.738;9.228;2023-03-01T03:23:23;-0.70;1.00
336;DHT22;156;48.738;9.228;2023-03-01T03:25:51;-0.60;1.00
336;DHT22;156;48.738;9.228;2023-03-01T03:28:18;-0.60;1.00
336;DHT22;156;48.738;9.228;2023-03-01T03:30:45;-0.60;1.00
336;DHT22;156;48.738;9.228;2023-03-01T03:33:13;-0.70;1.00
336;DHT22;156;48.738;9.228;2023-03-01T03:35:42;-0.70;1.00
336;DHT22;156;48.738;9.228;2023-03-01T03:38:11;-0.70;1.00
336;DHT22;156;48.738;9.228;2023-03-01T03:40:44;-0.70;1.00
336;DHT22;156;48.738;9.228;2023-03-01T03:43:13;-0.70;1.00
336;DHT22;156;48.738;9.228;2023-03-01T03:45:40;-0.60;1.00
336;DHT22;156;48.738;9.228;2023-03-01T03:48:08;-0.60;1.00
336;DHT22;156;48.738;9.228;2023-03-01T03:50:38;-0.70;1.00
336;DHT22;156;48.738;9.228;2023-03-01T03:53:07;-0.70;1.00
336;DHT22;156;48.738;9.228;2023-03-01T03:55:34;-0.70;1.00
336;DHT22;156;48.738;9.228;2023-03-01T03:58:05;-0.70;1.00
336;DHT22;156;48.738;9.228;2023-03-01T04:00:34;-0.70;1.00
336;DHT22;156;48.738;9.228;2023-03-01T04:03:02;-0.70;1.00
336;DHT22;156;48.738;9.228;2023-03-01T04:05:29;-0.60;1.00
336;DHT22;156;48.738;9.228;2023-03-01T04:07:57;-0.70;1.00
336;DHT22;156;48.738;9.228;2023-03-01T04:10:34;-0.70;1.00
336;DHT22;156;48.738;9.228;2023-03-01T04:13:01;-0.60;1.00
336;DHT22;156;48.738;9.228;2023-03-01T04:15:29;-0.60;1.00
336;DHT22;156;48.738;9.228;2023-03-01T04:17:56;-0.60;1.00
336;DHT22;156;48.738;9.228;2023-03-01T04:20:26;-0.60;1.00
336;DHT22;156;48.738;9.228;2023-03-01T04:22:59;-0.60;1.00
336;DHT22;156;48.738;9.228;2023-03-01T04:25:34;-0.70;1.00
336;DHT22;156;48.738;9.228;2023-03-01T04:28:00;-0.70;1.00
336;DHT22;156;48.738;9.228;2023-03-01T04:30:27;-0.60;1.00
336;DHT22;156;48.738;9.228;2023-03-01T04:32:54;-0.60;1.00
336;DHT22;156;48.738;9.228;2023-03-01T04:35:21;-0.60;1.00
336;DHT22;156;48.738;9.228;2023-03-01T04:37:49;-0.60;1.00
336;DHT22;156;48.738;9.228;2023-03-01T04:40:17;-0.60;1.00
336;DHT22;156;48.738;9.228;2023-03-01T04:42:44;-0.60;1.00
336;DHT22;156;48.738;9.228;2023-03-01T04:45:13;-0.50;1.00
336;DHT22;156;48.738;9.228;2023-03-01T04:47:40;-0.50;1.00
336;DHT22;156;48.738;9.228;2023-03-01T04:50:09;-0.40;1.00
336;DHT22;156;48.738;9.228;2023-03-01T04:52:36;-0.40;1.00
336;DHT22;156;48.738;9.228;2023-03-01T04:55:04;-0.50;1.00
336;DHT22;156;48.738;9.228;2023-03-01T04:57:34;-0.40;1.00
336;DHT22;156;48.738;9.228;2023-03-01T05:00:01;-0.40;1.00
336;DHT22;156;48.738;9.228;2023-03-01T05:02:46;-0.40;1.00
336;DHT22;156;48.738;9.228;2023-03-01T05:05:13;-0.40;1.00
336;DHT22;156;48.738;9.228;2023-03-01T05:07:40;-0.40;1.00
336;DHT22;156;48.738;9.228;2023-03-01T05:10:08;-0.40;1.00
336;DHT22;156;48.738;9.228;2023-03-01T05:12:37;-0.40;1.00
336;DHT22;156;48.738;9.228;2023-03-01T05:15:05;-0.40;1.00
336;DHT22;156;48.738;9.228;2023-03-01T05:17:32;-0.30;1.00
336;DHT22;156;48.738;9.228;2023-03-01T05:19:59;-0.40;1.00
336;DHT22;156;48.738;9.228;2023-03-01T05:22:26;-0.40;1.00
336;DHT22;156;48.738;9.228;2023-03-01T05:24:53;-0.40;1.00
336;DHT22;156;48.738;9.228;2023-03-01T05:27:20;-0.40;1.00
336;DHT22;156;48.738;9.228;2023-03-01T05:29:49;-0.50;1.00
336;DHT22;156;48.738;9.228;2023-03-01T05:32:16;-0.40;1.00
336;DHT22;156;48.738;9.228;2023-03-01T05:34:43;-0.40;1.00
336;DHT22;156;48.738;9.228;2023-03-01T05:37:11;-0.40;1.00
336;DHT22;156;48.738;9.228;2023-03-01T05:39:39;-0.50;1.00
336;DHT22;156;48.738;9.228;2023-03-01T05:42:10;-0.50;1.00
336;DHT22;156;48.738;9.228;2023-03-01T05:44:37;-0.50;1.00
336;DHT22;156;48.738;9.228;2023-03-01T05:47:05;-0.50;1.00
336;DHT22;156;48.738;9.228;2023-03-01T05:49:32;-0.50;1.00
336;DHT22;156;48.738;9.228;2023-03-01T05:52:00;-0.50;1.00
336;DHT22;156;48.738;9.228;2023-03-01T05:54:27;-0.40;1.00
336;DHT22;156;48.738;9.228;2023-03-01T05:56:53;-0.50;1.00
336;DHT22;156;48.738;9.228;2023-03-01T05:59:21;-0.40;1.00
336;DHT22;156;48.738;9.228;2023-03-01T06:01:48;-0.40;1.00
336;DHT22;156;48.738;9.228;2023-03-01T06:04:16;-0.40;1.00
336;DHT22;156;48.738;9.228;2023-03-01T06:06:43;-0.30;1.00
336;DHT22;156;48.738;9.228;2023-03-01T06:09:10;-0.40;1.00
336;DHT22;156;48.738;9.228;2023-03-01T06:11:37;-0.40;1.00
336;DHT22;156;48.738;9.228;2023-03-01T06:14:05;-0.30;1.00
336;DHT22;156;48.738;9.228;2023-03-01T06:16:33;-0.40;1.00
336;DHT22;156;48.738;9.228;2023-03-01T06:19:00;-0.40;1.00
336;DHT22;156;48.738;9.228;2023-03-01T06:21:28;-0.40;1.00
336;DHT22;156;48.738;9.228;2023-03-01T06:23:55;-0.30;1.00
336;DHT22;156;48.738;9.228;2023-03-01T06:26:22;-0.40;1.00
336;DHT22;156;48.738;9.228;2023-03-01T06:28:48;-0.50;1.00
336;DHT22;156;48.738;9.228;2023-03-01T06:31:16;-0.50;1.00
336;DHT22;156;48.738;9.228;2023-03-01T06:33:43;-0.40;1.00
336;DHT22;156;48.738;9.228;2023-03-01T06:36:10;-0.40;1.00
336;DHT22;156;48.738;9.228;2023-03-01T06:38:38;-0.40;1.00
336;DHT22;156;48.738;9.228;2023-03-01T06:41:06;-0.40;1.00
336;DHT22;156;48.738;9.228;2023-03-01T06:43:36;-0.30;1.00
336;DHT22;156;48.738;9.228;2023-03-01T06:46:06;-0.30;1.00
336;DHT22;156;48.738;9.228;2023-03-01T06:48:34;-0.40;1.00
336;DHT22;156;48.738;9.228;2023-03-01T06:51:01;-0.40;1.00
336;DHT22;156;48.738;9.228;2023-03-01T06:53:28;-0.40;1.00
336;DHT22;156;48.738;9.228;2023-03-01T06:55:57;-0.40;1.00
336;DHT22;156;48.738;9.228;2023-03-01T06:58:25;-0.50;1.00
336;DHT22;156;48.738;9.228;2023-03-01T07:00:52;-0.50;1.00
336;DHT22;156;48.738;9.228;2023-03-01T07:03:19;-0.60;1.00
336;DHT22;156;48.738;9.228;2023-03-01T07:05:48;-0.70;1.00
336;DHT22;156;48.738;9.228;2023-03-01T07:08:15;-0.70;1.00
336;DHT22;156;48.738;9.228;2023-03-01T07:10:42;-0.70;1.00
336;DHT22;156;48.738;9.228;2023-03-01T07:13:10;-0.70;1.00
336;DHT22;156;48.738;9.228;2023-03-01T07:15:37;-0.70;1.00
336;DHT22;156;48.738;9.228;2023-03-01T07:18:04;-0.70;1.00
336;DHT22;156;48.738;9.228;2023-03-01T07:20:31;-0.80;1.00
336;DHT22;156;48.738;9.228;2023-03-01T07:22:57;-0.80;1.00
336;DHT22;156;48.738;9.228;2023-03-01T07:25:24;-0.80;1.00
336;DHT22;156;48.738;9.228;2023-03-01T07:27:52;-0.80;1.00
336;DHT22;156;48.738;9.228;2023-03-01T07:30:21;-0.70;1.00
336;DHT22;156;48.738;9.228;2023-03-01T07:32:49;-0.70;1.00
336;DHT22;156;48.738;9.228;2023-03-01T07:35:16;-0.70;1.00
336;DHT22;156;48.738;9.228;2023-03-01T07:37:43;-0.70;1.00
336;DHT22;156;48.738;9.228;2023-03-01T07:40:11;-0.60;1.00
336;DHT22;156;48.738;9.228;2023-03-01T07:42:38;-0.60;1.00
336;DHT22;156;48.738;9.228;2023-03-01T07:45:06;-0.50;1.00
336;DHT22;156;48.738;9.228;2023-03-01T07:47:35;-0.40;1.00
336;DHT22;156;48.738;9.228;2023-03-01T07:50:03;-0.40;1.00
336;DHT22;156;48.738;9.228;2023-03-01T07:52:31;-0.30;1.00
336;DHT22;156;48.738;9.228;2023-03-01T07:54:58;-0.40;1.00
336;DHT22;156;48.738;9.228;2023-03-01T07:57:25;-0.40;1.00
336;DHT22;156;48.738;9.228;2023-03-01T07:59:52;-0.30;1.00
336;DHT22;156;48.738;9.228;2023-03-01T08:02:18;-0.20;1.00
336;DHT22;156;48.738;9.228;2023-03-01T08:04:47;-0.20;1.00
336;DHT22;156;48.738;9.228;2023-03-01T08:07:13;-0.10;1.00
336;DHT22;156;48.738;9.228;2023-03-01T08:09:40;-0.10;1.00
336;DHT22;156;48.738;9.228;2023-03-01T08:12:07;0.00;1.00
336;DHT22;156;48.738;9.228;2023-03-01T08:14:34;-0.10;1.00
336;DHT22;156;48.738;9.228;2023-03-01T08:17:01;0.00;1.00
336;DHT22;156;48.738;9.228;2023-03-01T08:19:29;0.10;1.00
336;DHT22;156;48.738;9.228;2023-03-01T08:21:58;0.10;1.00
336;DHT22;156;48.738;9.228;2023-03-01T08:24:25;0.10;1.00
336;DHT22;156;48.738;9.228;2023-03-01T08:26:52;0.10;1.00
336;DHT22;156;48.738;9.228;2023-03-01T08:29:19;0.20;1.00
336;DHT22;156;48.738;9.228;2023-03-01T08:31:46;0.20;1.00
336;DHT22;156;48.738;9.228;2023-03-01T08:34:15;0.30;1.00
336;DHT22;156;48.738;9.228;2023-03-01T08:36:44;0.30;1.00
336;DHT22;156;48.738;9.228;2023-03-01T08:39:14;0.40;1.00
336;DHT22;156;48.738;9.228;2023-03-01T08:41:42;0.40;1.00
336;DHT22;156;48.738;9.228;2023-03-01T08:44:10;0.30;1.00
336;DHT22;156;48.738;9.228;2023-03-01T08:46:39;0.40;1.00
336;DHT22;156;48.738;9.228;2023-03-01T08:49:07;0.50;1.00
336;DHT22;156;48.738;9.228;2023-03-01T08:51:35;0.50;1.00
336;DHT22;156;48.738;9.228;2023-03-01T08:54:03;0.60;1.00
336;DHT22;156;48.738;9.228;2023-03-01T08:56:32;0.60;1.00
336;DHT22;156;48.738;9.228;2023-03-01T08:59:00;0.70;1.00
336;DHT22;156;48.738;9.228;2023-03-01T09:01:26;0.80;1.00
336;DHT22;156;48.738;9.228;2023-03-01T09:03:53;1.00;1.00
336;DHT22;156;48.738;9.228;2023-03-01T09:06:20;1.10;1.00
336;DHT22;156;48.738;9.228;2023-03-01T09:08:50;1.20;1.00
336;DHT22;156;48.738;9.228;2023-03-01T09:11:19;1.30;1.00
336;DHT22;156;48.738;9.228;2023-03-01T09:13:48;1.30;1.00
336;DHT22;156;48.738;9.228;2023-03-01T09:16:16;1.40;1.00
336;DHT22;156;48.738;9.228;2023-03-01T09:18:45;1.40;1.00
336;DHT22;156;48.738;9.228;2023-03-01T09:21:14;1.50;1.00
336;DHT22;156;48.738;9.228;2023-03-01T09:23:42;1.60;1.00
336;DHT22;156;48.738;9.228;2023-03-01T09:26:13;1.60;1.00
336;DHT22;156;48.738;9.228;2023-03-01T09:28:42;1.60;1.00
336;DHT22;156;48.738;9.228;2023-03-01T09:31:11;1.70;1.00
336;DHT22;156;48.738;9.228;2023-03-01T09:33:40;1.70;1.00
336;DHT22;156;48.738;9.228;2023-03-01T09:36:10;1.60;1.00
336;DHT22;156;48.738;9.228;2023-03-01T09:38:37;1.80;1.00
336;DHT22;156;48.738;9.228;2023-03-01T09:41:09;1.60;1.00
336;DHT22;156;48.738;9.228;2023-03-01T09:43:42;1.70;1.00
336;DHT22;156;48.738;9.228;2023-03-01T09:46:14;1.90;1.00
336;DHT22;156;48.738;9.228;2023-03-01T09:48:44;2.10;1.00
336;DHT22;156;48.738;9.228;2023-03-01T09:51:16;2.30;1.00
336;DHT22;156;48.738;9.228;2023-03-01T09:53:44;2.50;1.00
336;DHT22;156;48.738;9.228;2023-03-01T09:56:16;2.50;1.00
336;DHT22;156;48.738;9.228;2023-03-01T09:58:51;2.50;1.00
336;DHT22;156;48.738;9.228;2023-03-01T10:01:33;2.30;1.00
336;DHT22;156;48.738;9.228;2023-03-01T10:04:32;2.40;1.00
336;DHT22;156;48.738;9.228;2023-03-01T10:07:14;2.10;1.00
336;DHT22;156;48.738;9.228;2023-03-01T10:09:44;2.20;1.00
336;DHT22;156;48.738;9.228;2023-03-01T10:12:13;2.40;1.00
336;DHT22;156;48.738;9.228;2023-03-01T10:14:48;2.40;1.00
336;DHT22;156;48.738;9.228;2023-03-01T10:17:25;2.40;1.00
336;DHT22;156;48.738;9.228;2023-03-01T10:19:55;2.40;1.00
336;DHT22;156;48.738;9.228;2023-03-01T10:22:26;2.40;1.00
336;DHT22;156;48.738;9.228;2023-03-01T10:24:55;2.50;1.00
336;DHT22;156;48.738;9.228;2023-03-01T10:27:25;2.70;1.00
336;DHT22;156;48.738;9.228;2023-03-01T10:29:58;2.80;1.00
336;DHT22;156;48.738;9.228;2023-03-01T10:32:30;2.90;1.00
336;DHT22;156;48.738;9.228;2023-03-01T10:34:57;3.00;1.00
336;DHT22;156;48.738;9.228;2023-03-01T10:37:24;3.10;1.00
336;DHT22;156;48.738;9.228;2023-03-01T10:39:57;3.10;1.00
336;DHT22;156;48.738;9.228;2023-03-01T10:42:29;3.10;1.00
336;DHT22;156;48.738;9.228;2023-03-01T10:44:57;3.10;1.00
336;DHT22;156;48.738;9.228;2023-03-01T10:47:26;3.30;1.00
336;DHT22;156;48.738;9.228;2023-03-01T10:49:57;3.50;1.00
336;DHT22;156;48.738;9.228;2023-03-01T10:52:27;3.60;1.00
336;DHT22;156;48.738;9.228;2023-03-01T10:54:56;3.60;1.00
336;DHT22;156;48.738;9.228;2023-03-01T10:57:32;3.70;1.00
336;DHT22;156;48.738;9.228;2023-03-01T11:00:19;3.70;1.00
336;DHT22;156;48.738;9.228;2023-03-01T11:02:49;3.80;1.00
336;DHT22;156;48.738;9.228;2023-03-01T11:05:20;3.80;1.00
336;DHT22;156;48.738;9.228;2023-03-01T11:07:51;3.90;1.00
336;DHT22;156;48.738;9.228;2023-03-01T11:10:20;4.00;1.00
336;DHT22;156;48.738;9.228;2023-03-01T11:12:47;3.90;1.00
336;DHT22;156;48.738;9.228;2023-03-01T11:15:23;3.90;1.00
336;DHT22;156;48.738;9.228;2023-03-01T11:17:51;3.90;1.00
336;DHT22;156;48.738;9.228;2023-03-01T11:20:25;4.10;1.00
336;DHT22;156;48.738;9.228;2023-03-01T11:22:54;4.30;1.00
336;DHT22;156;48.738;9.228;2023-03-01T11:25:25;4.20;1.00
336;DHT22;156;48.738;9.228;2023-03-01T11:27:53;4.40;1.00
336;DHT22;156;48.738;9.228;2023-03-01T11:30:24;4.30;1.00
336;DHT22;156;48.738;9.228;2023-03-01T11:33:01;4.40;1.00
336;DHT22;156;48.738;9.228;2023-03-01T11:35:32;4.50;1.00
336;DHT22;156;48.738;9.228;2023-03-01T11:38:14;4.40;1.00
336;DHT22;156;48.738;9.228;2023-03-01T11:40:46;4.40;1.00
336;DHT22;156;48.738;9.228;2023-03-01T11:43:23;4.50;1.00
336;DHT22;156;48.738;9.228;2023-03-01T11:46:12;4.50;1.00
336;DHT22;156;48.738;9.228;2023-03-01T11:48:53;4.50;1.00
336;DHT22;156;48.738;9.228;2023-03-01T11:51:38;4.60;1.00
336;DHT22;156;48.738;9.228;2023-03-01T11:54:17;4.60;1.00
336;DHT22;156;48.738;9.228;2023-03-01T11:56:48;4.70;1.00
336;DHT22;156;48.738;9.228;2023-03-01T11:59:32;4.90;1.00
336;DHT22;156;48.738;9.228;2023-03-01T12:02:23;5.10;1.00
336;DHT22;156;48.738;9.228;2023-03-01T12:05:16;5.20;1.00
336;DHT22;156;48.738;9.228;2023-03-01T12:07:53;5.50;1.00
336;DHT22;156;48.738;9.228;2023-03-01T12:10:26;5.60;1.00
336;DHT22;156;48.738;9.228;2023-03-01T12:13:03;5.70;1.00
336;DHT22;156;48.738;9.228;2023-03-01T12:16:11;6.10;1.00
336;DHT22;156;48.738;9.228;2023-03-01T12:18:58;5.80;1.00
336;DHT22;156;48.738;9.228;2023-03-01T12:21:39;5.60;1.00
336;DHT22;156;48.738;9.228;2023-03-01T12:24:35;5.80;1.00
336;DHT22;156;48.738;9.228;2023-03-01T12:27:27;6.10;1.00
336;DHT22;156;48.738;9.228;2023-03-01T12:30:06;6.20;1.00
336;DHT22;156;48.738;9.228;2023-03-01T12:32:47;6.50;1.00
336;DHT22;156;48.738;9.228;2023-03-01T12:35:36;6.90;1.00
336;DHT22;156;48.738;9.228;2023-03-01T12:38:24;6.90;1.00
336;DHT22;156;48.738;9.228;2023-03-01T12:44:04;7.10;1.00
336;DHT22;156;48.738;9.228;2023-03-01T12:46:47;7.40;1.00
336;DHT22;156;48.738;9.228;2023-03-01T12:49:22;7.80;1.00
336;DHT22;156;48.738;9.228;2023-03-01T12:51:54;7.40;1.00
336;DHT22;156;48.738;9.228;2023-03-01T12:54:26;7.00;1.00
336;DHT22;156;48.738;9.228;2023-03-01T12:56:55;7.40;1.00
336;DHT22;156;48.738;9.228;2023-03-01T12:59:29;7.20;1.00
336;DHT22;156;48.738;9.228;2023-03-01T13:02:03;7.20;1.00
336;DHT22;156;48.738;9.228;2023-03-01T13:04:40;7.30;1.00
336;DHT22;156;48.738;9.228;2023-03-01T13:07:23;7.10;1.00
336;DHT22;156;48.738;9.228;2023-03-01T13:09:59;7.00;1.00
336;DHT22;156;48.738;9.228;2023-03-01T13:12:53;6.80;1.00
336;DHT22;156;48.738;9.228;2023-03-01T13:15:33;6.90;1.00
336;DHT22;156;48.738;9.228;2023-03-01T13:18:02;7.30;1.00
336;DHT22;156;48.738;9.228;2023-03-01T13:20:45;7.60;1.00
336;DHT22;156;48.738;9.228;2023-03-01T13:23:23;7.70;1.00
336;DHT22;156;48.738;9.228;2023-03-01T13:26:01;7.70;1.00
336;DHT22;156;48.738;9.228;2023-03-01T13:28:48;8.10;1.00
336;DHT22;156;48.738;9.228;2023-03-01T13:34:49;8.80;1.00
336;DHT22;156;48.738;9.228;2023-03-01T13:37:24;8.30;1.00
336;DHT22;156;48.738;9.228;2023-03-01T13:39:55;8.50;1.00
336;DHT22;156;48.738;9.228;2023-03-01T13:42:38;8.60;1.00
336;DHT22;156;48.738;9.228;2023-03-01T13:45:34;8.70;1.00
336;DHT22;156;48.738;9.228;2023-03-01T13:48:08;9.20;1.00
336;DHT22;156;48.738;9.228;2023-03-01T13:50:42;9.80;1.00
336;DHT22;156;48.738;9.228;2023-03-01T13:53:14;9.60;1.00
336;DHT22;156;48.738;9.228;2023-03-01T13:55:44;9.20;1.00
336;DHT22;156;48.738;9.228;2023-03-01T13:58:18;9.00;1.00
336;DHT22;156;48.738;9.228;2023-03-01T14:00:54;9.00;1.00
336;DHT22;156;48.738;9.228;2023-03-01T14:03:22;9.20;1.00
336;DHT22;156;48.738;9.228;2023-03-01T14:06:01;8.90;1.00
336;DHT22;156;48.738;9.228;2023-03-01T14:08:29;9.10;1.00
336;DHT22;156;48.738;9.228;2023-03-01T14:11:23;8.80;1.00
336;DHT22;156;48.738;9.228;2023-03-01T14:14:03;8.80;1.00
336;DHT22;156;48.738;9.228;2023-03-01T14:16:40;8.80;1.00
336;DHT22;156;48.738;9.228;2023-03-01T14:19:16;8.30;1.00
336;DHT22;156;48.738;9.228;2023-03-01T14:21:45;8.30;1.00
336;DHT22;156;48.738;9.228;2023-03-01T14:24:18;8.60;1.00
336;DHT22;156;48.738;9.228;2023-03-01T14:26:46;8.40;1.00
336;DHT22;156;48.738;9.228;2023-03-01T14:29:26;8.40;1.00
336;DHT22;156;48.738;9.228;2023-03-01T14:31:55;7.90;1.00
336;DHT22;156;48.738;9.228;2023-03-01T14:34:23;8.10;1.00
336;DHT22;156;48.738;9.228;2023-03-01T14:36:50;8.40;1.00
336;DHT22;156;48.738;9.228;2023-03-01T14:39:19;8.50;1.00
336;DHT22;156;48.738;9.228;2023-03-01T14:41:47;8.70;1.00
336;DHT22;156;48.738;9.228;2023-03-01T14:44:16;8.90;1.00
336;DHT22;156;48.738;9.228;2023-03-01T14:46:46;8.90;1.00
336;DHT22;156;48.738;9.228;2023-03-01T14:49:17;8.90;1.00
336;DHT22;156;48.738;9.228;2023-03-01T14:51:52;8.60;1.00
336;DHT22;156;48.738;9.228;2023-03-01T14:54:23;8.50;1.00
336;DHT22;156;48.738;9.228;2023-03-01T14:56:52;8.70;1.00
336;DHT22;156;48.738;9.228;2023-03-01T14:59:21;8.60;1.00
336;DHT22;156;48.738;9.228;2023-03-01T15:01:53;8.50;1.00
336;DHT22;156;48.738;9.228;2023-03-01T15:04:23;8.80;1.00
336;DHT22;156;48.738;9.228;2023-03-01T15:06:52;8.80;1.00
336;DHT22;156;48.738;9.228;2023-03-01T15:09:19;8.60;1.00
336;DHT22;156;48.738;9.228;2023-03-01T15:11:46;8.60;1.00
336;DHT22;156;48.738;9.228;2023-03-01T15:14:27;8.70;1.00
336;DHT22;156;48.738;9.228;2023-03-01T15:16:54;8.70;1.00
336;DHT22;156;48.738;9.228;2023-03-01T15:19:24;8.70;1.00
336;DHT22;156;48.738;9.228;2023-03-01T15:21:52;8.80;1.00
336;DHT22;156;48.738;9.228;2023-03-01T15:24:23;8.80;1.00
336;DHT22;156;48.738;9.228;2023-03-01T15:26:52;8.20;1.00
336;DHT22;156;48.738;9.228;2023-03-01T15:29:22;8.50;1.00
336;DHT22;156;48.738;9.228;2023-03-01T15:31:56;8.70;1.00
336;DHT22;156;48.738;9.228;2023-03-01T15:34:26;8.80;1.00
336;DHT22;156;48.738;9.228;2023-03-01T15:36:55;8.50;1.00
336;DHT22;156;48.738;9.228;2023-03-01T15:39:41;8.50;1.00
336;DHT22;156;48.738;9.228;2023-03-01T15:42:11;8.20;1.00
336;DHT22;156;48.738;9.228;2023-03-01T15:44:39;8.10;1.00
336;DHT22;156;48.738;9.228;2023-03-01T15:47:28;8.00;1.00
336;DHT22;156;48.738;9.228;2023-03-01T15:49:58;7.90;1.00
336;DHT22;156;48.738;9.228;2023-03-01T15:52:28;7.80;1.00
336;DHT22;156;48.738;9.228;2023-03-01T15:54:58;7.70;1.00
336;DHT22;156;48.738;9.228;2023-03-01T15:57:25;7.60;1.00
336;DHT22;156;48.738;9.228;2023-03-01T15:59:52;7.40;1.00
336;DHT22;156;48.738;9.228;2023-03-01T16:02:19;7.30;1.00
336;DHT22;156;48.738;9.228;2023-03-01T16:04:47;7.50;1.00
336;DHT22;156;48.738;9.228;2023-03-01T16:07:15;7.50;1.00
336;DHT22;156;48.738;9.228;2023-03-01T16:09:42;7.30;1.00
336;DHT22;156;48.738;9.228;2023-03-01T16:12:13;7.30;1.00
336;DHT22;156;48.738;9.228;2023-03-01T16:14:40;7.10;1.00
336;DHT22;156;48.738;9.228;2023-03-01T16:17:07;6.80;1.00
336;DHT22;156;48.738;9.228;2023-03-01T16:19:35;6.70;1.00
336;DHT22;156;48.738;9.228;2023-03-01T16:22:02;6.60;1.00
336;DHT22;156;48.738;9.228;2023-03-01T16:24:31;6.50;1.00
336;DHT22;156;48.738;9.228;2023-03-01T16:26:58;6.50;1.00
336;DHT22;156;48.738;9.228;2023-03-01T16:29:24;6.40;1.00
336;DHT22;156;48.738;9.228;2023-03-01T16:31:51;6.30;1.00
336;DHT22;156;48.738;9.228;2023-03-01T16:34:18;6.40;1.00
336;DHT22;156;48.738;9.228;2023-03-01T16:36:47;6.30;1.00
336;DHT22;156;48.738;9.228;2023-03-01T16:39:14;6.20;1.00
336;DHT22;156;48.738;9.228;2023-03-01T16:41:43;6.10;1.00
336;DHT22;156;48.738;9.228;2023-03-01T16:44:10;6.10;1.00
336;DHT22;156;48.738;9.228;2023-03-01T16:46:36;6.00;1.00
336;DHT22;156;48.738;9.228;2023-03-01T16:49:03;6.00;1.00
336;DHT22;156;48.738;9.228;2023-03-01T16:51:30;5.90;1.00
336;DHT22;156;48.738;9.228;2023-03-01T16:54:00;5.80;1.00
336;DHT22;156;48.738;9.228;2023-03-01T16:56:27;5.80;1.00
336;DHT22;156;48.738;9.228;2023-03-01T16:58:56;5.80;1.00
336;DHT22;156;48.738;9.228;2023-03-01T17:01:23;5.80;1.00
336;DHT22;156;48.738;9.228;2023-03-01T17:03:51;5.70;1.00
336;DHT22;156;48.738;9.228;2023-03-01T17:06:21;5.70;1.00
336;DHT22;156;48.738;9.228;2023-03-01T17:08:50;5.60;1.00
336;DHT22;156;48.738;9.228;2023-03-01T17:11:19;5.60;1.00
336;DHT22;156;48.738;9.228;2023-03-01T17:13:46;5.50;1.00
336;DHT22;156;48.738;9.228;2023-03-01T17:16:17;5.50;1.00
336;DHT22;156;48.738;9.228;2023-03-01T17:18:45;5.50;1.00
336;DHT22;156;48.738;9.228;2023-03-01T17:21:12;5.50;1.00
336;DHT22;156;48.738;9.228;2023-03-01T17:23:41;5.40;1.00
336;DHT22;156;48.738;9.228;2023-03-01T17:26:09;5.40;1.00
336;DHT22;156;48.738;9.228;2023-03-01T17:28:37;5.40;1.00
336;DHT22;156;48.738;9.228;2023-03-01T17:31:06;5.30;1.00